Sheppard Air Force Base-Wichita Falls Municipal Airport
KSPS : now visible

Airfield :











YOU CAN JOIN US ON...

 
LOGIN :

Register | Disclaimer

   EN    FR    IT 

 









Legend :    VFR   Marginal VFR   IFR   Intensive IFR   Very Intensive IFR
Visi :
Ceiling :
>= 8 km
>= 3000ft
5 to 8 km
1000 to 3000 ft
1500m to 5 km
500 to 1000 ft
800 to 1500m
200 to 500 ft
< 800m
< 200 ft
Symbols :   Thunderstorms  Fog  Heavy snow  Heavy precipitations  Wind > 20 kt






- Airport Elevation : 1019 ft
- IATA code : SPS


KSPS - Sheppard Air Force Base-Wichita Falls Municipal

CURRENT METAR :
  • 242052Z 02008KT 5SM BR FEW017 OVC030 13/13 A2982 RMK AO2 RAE33 SLP094 P0001 60003 T01330128 55018

EXPIRED METARs :
  • 242039Z 06005KT 5SM BR OVC029 15/14 A2982 RMK AO2 RAE33 P0001 T01500139
  • 242030Z 07007KT 5SM -RA BR OVC031 15/14 A2981 RMK AO2 P0001 T01500139
  • 242019Z 11006KT 5SM -RA BR BKN029 BKN037 OVC044 15/14 A2981 RMK AO2 LTG DSNT SE P0001 T01500139
  • 241952Z 12012KT 3SM -RA BR SCT032 BKN060 OVC080 15/14 A2981 RMK AO2 LTG DSNT SW RAB33 SLP089 P0002 T01500139
  • 241942Z 10011KT 3SM -RA BKN034 BKN060 OVC075 16/13 A2982 RMK AO2 RAB33 P0001 T01610133
  • 241852Z 08004KT 10SM FEW012 OVC032 17/13 A2988 RMK AO2 PRESFR SLP112 T01720133

TAF KSPS
Valid from the 24 at 20:00 until the 25 at 18:00 UTC


242011Z 2420/2518 12004KT P6SM OVC035
TEMPO 2420/2421 3SM -TSRA OVC035CB
FM242100 03007KT 5SM SHRA BR OVC007
FM250000 04009KT 3SM SHRADZ BR OVC004
TEMPO 2506/2509 1SM TSRA OVC004CB
FM250900 23016G25KT P6SM BKN007 BKN025
KZFW FIR / North America



MET'MAP, your aeronautical weather chart ! - Copyright ORBIFLY December 2007 - Disclaimer

ORBIFLY MET'MAP TEAM :

Programming & Development : Alexandra Zaïnal
Concept & original design : Baudouin d'Aumeries
Assistance for programming : Marc-Olivier Méhu
Technical & hardware support : Manuel Goepfert

Contact : metmap@orbifly.com




SOURCES & CREDITS :

   NOAA       Earth
Advisory